Flin Flon Airport
CYFO : now visible

Airfield :











YOU CAN JOIN US ON...

 
LOGIN :

Register | Disclaimer

   EN    FR    IT 

 









Legend :    VFR   Marginal VFR   IFR   Intensive IFR   Very Intensive IFR
Visi :
Ceiling :
>= 8 km
>= 3000ft
5 to 8 km
1000 to 3000 ft
1500m to 5 km
500 to 1000 ft
800 to 1500m
200 to 500 ft
< 800m
< 200 ft
Symbols :   Thunderstorms  Fog  Heavy snow  Heavy precipitations  Wind > 20 kt






- Airport Elevation : 997 ft
- IATA code : YFO


CYFO - Flin Flon

CURRENT METAR :
  • 192300Z 34006KT 12SM -SN OVC018 M07/M10 A2987 RMK SC8 SLP138

EXPIRED METARs :
  • 192200Z 34004KT 15SM -SN BKN019 OVC030 M07/M10 A2986 RMK SC7SC1 SLP134
  • 192100Z 32009G16KT 280V340 15SM -SN BKN016 OVC030 M06/M09 A2984 RMK SC6SC2 SLP127

TAF N/A



MET'MAP, your aeronautical weather chart ! - Copyright ORBIFLY December 2007 - Disclaimer

ORBIFLY MET'MAP TEAM :

Programming & Development : Alexandra Zaïnal
Concept & Development : Baudouin d'Aumeries
Co-Development & Prog : Marc-Olivier Méhu
Technical & hardware support : Manuel Goepfert

Contact : metmap@orbifly.com




SOURCES & CREDITS :

   NOAA       Earth
Advisory